Time;durP1;ratioP1;P1;durP2;ratioP2;P2;SDS_P1;SDS_P2;PMS_P1;PMS_P2;Temp;Humidity;BMP_temperature;BMP_pressure;BME280_temperature;BME280_humidity;BME280_pressure;Samples;Min_cycle;Max_cycle;Signal;HPM_P1;HPM_P2
2022/12/05 00:01:54;;;;;;;49.15;27.73;;;;;;;3.41;90.02;101815.41;5066782;28;20032;-48
2022/12/05 00:04:19;;;;;;;50.70;27.67;;;;;;;3.44;89.84;101813.94;5064208;28;20039;-48
2022/12/05 00:06:44;;;;;;;53.83;28.08;;;;;;;3.42;90.08;101820.59;5068414;28;20073;-47
2022/12/05 00:09:12;;;;;;;45.35;26.27;;;;;;;3.42;90.14;101823.13;5067125;28;20040;-47
2022/12/05 00:11:40;;;;;;;50.00;27.30;;;;;;;3.41;89.84;101825.56;5068284;28;20028;-47
2022/12/05 00:14:08;;;;;;;52.70;27.70;;;;;;;3.45;89.94;101820.78;5066710;28;20036;-49
2022/12/05 00:16:35;;;;;;;49.35;27.40;;;;;;;3.46;90.03;101824.25;5066836;28;20399;-48
2022/12/05 00:19:02;;;;;;;53.38;27.85;;;;;;;3.42;89.85;101823.13;5065961;28;20599;-49
2022/12/05 00:21:31;;;;;;;48.13;26.90;;;;;;;3.45;89.91;101827.53;5067309;28;20079;-48
2022/12/05 00:23:58;;;;;;;51.40;27.65;;;;;;;3.47;90.06;101823.47;5064316;28;20052;-48
2022/12/05 00:26:23;;;;;;;49.85;27.90;;;;;;;3.49;89.92;101821.91;5064754;28;20048;-47
2022/12/05 00:28:49;;;;;;;51.83;27.75;;;;;;;3.51;89.74;101812.72;5067676;28;20036;-48
2022/12/05 00:31:18;;;;;;;49.00;27.17;;;;;;;3.53;89.83;101811.19;5066666;28;20064;-49
2022/12/05 00:33:44;;;;;;;49.30;27.40;;;;;;;3.50;89.63;101814.38;5063698;28;20370;-45
2022/12/05 00:36:15;;;;;;;46.00;26.05;;;;;;;3.53;89.74;101813.75;5067422;28;20047;-51
2022/12/05 00:38:41;;;;;;;47.65;26.98;;;;;;;3.51;89.66;101810.19;5066789;28;20048;-46
2022/12/05 00:41:16;;;;;;;49.13;27.27;;;;;;;3.48;89.69;101805.78;5068532;28;20458;-46
2022/12/05 00:43:43;;;;;;;48.65;27.55;;;;;;;3.47;89.69;101803.13;5068631;28;20415;-46
2022/12/05 00:46:17;;;;;;;47.75;26.85;;;;;;;3.47;90.01;101803.13;5067774;28;20036;-50
2022/12/05 00:48:43;;;;;;;53.20;28.35;;;;;;;3.49;89.79;101799.91;5072311;28;20029;-49
2022/12/05 00:51:18;;;;;;;47.25;26.88;;;;;;;3.52;89.43;101803.44;5066017;28;20511;-50
2022/12/05 00:53:44;;;;;;;45.70;27.30;;;;;;;3.52;89.64;101804.34;5064239;28;20028;-49
2022/12/05 00:56:12;;;;;;;45.92;26.35;;;;;;;3.55;89.46;101803.66;5068034;28;20477;-50
2022/12/05 00:58:38;;;;;;;44.40;26.67;;;;;;;3.57;89.40;101802.97;5065011;28;22268;-47
2022/12/05 01:01:12;;;;;;;45.72;26.52;;;;;;;3.63;89.51;101798.34;5064907;28;20461;-46
2022/12/05 01:03:38;;;;;;;46.22;26.50;;;;;;;3.63;89.09;101803.41;5064859;28;20112;-45
2022/12/05 01:06:04;;;;;;;48.03;27.63;;;;;;;3.59;89.14;101801.47;5067720;28;20392;-50
2022/12/05 01:08:31;;;;;;;45.05;26.13;;;;;;;3.62;88.92;101801.66;5066821;28;20127;-47
2022/12/05 01:10:57;;;;;;;45.17;26.75;;;;;;;3.60;89.15;101803.22;5064986;28;20338;-47
2022/12/05 01:13:23;;;;;;;47.47;27.75;;;;;;;3.62;88.88;101804.19;5066643;28;20032;-46
2022/12/05 01:15:49;;;;;;;46.08;27.58;;;;;;;3.61;89.08;101809.19;5067615;28;20029;-45
2022/12/05 01:18:14;;;;;;;50.85;28.35;;;;;;;3.61;89.07;101812.63;5062277;28;20102;-47
2022/12/05 01:20:41;;;;;;;50.45;28.98;;;;;;;3.64;89.06;101800.13;5063951;28;20111;-48
2022/12/05 01:23:06;;;;;;;53.00;28.70;;;;;;;3.63;88.99;101807.63;5062341;28;20032;-48
2022/12/05 01:25:32;;;;;;;48.80;27.75;;;;;;;3.66;88.96;101813.81;5065523;28;20033;-49
2022/12/05 01:27:58;;;;;;;50.35;27.92;;;;;;;3.67;88.93;101814.72;5066700;28;20100;-47
2022/12/05 01:30:23;;;;;;;49.10;27.70;;;;;;;3.70;88.69;101818.38;5065907;28;20040;-47
2022/12/05 01:32:49;;;;;;;46.60;27.17;;;;;;;3.68;88.87;101816.47;5065640;28;20047;-48
2022/12/05 01:35:14;;;;;;;47.00;28.05;;;;;;;3.68;88.99;101824.97;5063186;28;20049;-48
2022/12/05 01:37:40;;;;;;;47.83;27.92;;;;;;;3.68;88.93;101822.44;5064481;28;20115;-50
2022/12/05 01:40:07;;;;;;;48.58;27.30;;;;;;;3.68;88.94;101827.53;5061469;28;20041;-49
2022/12/05 01:42:32;;;;;;;43.20;26.23;;;;;;;3.68;89.26;101832.63;5060801;28;20111;-48
2022/12/05 01:45:01;;;;;;;46.58;26.13;;;;;;;3.70;89.00;101825.09;5069122;28;20108;-51
2022/12/05 01:47:29;;;;;;;46.05;27.45;;;;;;;3.69;89.21;101826.75;5069471;28;20362;-49
2022/12/05 01:49:57;;;;;;;46.55;26.27;;;;;;;3.74;89.34;101827.97;5064670;28;20086;-48
2022/12/05 01:52:25;;;;;;;44.78;27.08;;;;;;;3.77;88.91;101840.03;5069896;28;20024;-48
2022/12/05 01:54:55;;;;;;;47.30;27.13;;;;;;;3.76;88.98;101836.59;5067637;28;20396;-48
2022/12/05 01:57:22;;;;;;;48.30;27.40;;;;;;;3.76;89.21;101841.69;5067693;28;20535;-48
2022/12/05 01:59:50;;;;;;;45.92;27.48;;;;;;;3.80;88.99;101837.69;5065392;28;20393;-49
2022/12/05 02:02:16;;;;;;;45.72;27.88;;;;;;;3.71;89.17;101840.47;5069446;28;20032;-49
2022/12/05 02:04:56;;;;;;;47.15;27.48;;;;;;;3.74;89.60;101840.69;5070192;28;20032;-48
2022/12/05 02:07:21;;;;;;;45.38;27.33;;;;;;;3.70;89.45;101830.16;5068854;28;20435;-47
2022/12/05 02:09:49;;;;;;;45.20;26.70;;;;;;;3.75;89.76;101842.44;5066209;28;20033;-48
2022/12/05 02:12:19;;;;;;;48.58;28.52;;;;;;;3.74;90.04;101843.22;5067979;28;20405;-46
2022/12/05 02:14:53;;;;;;;50.55;26.98;;;;;;;3.75;90.03;101841.56;5068956;28;20105;-45
2022/12/05 02:17:53;;;;;;;48.13;27.38;;;;;;;3.78;89.97;101843.47;5068241;28;20036;-48
2022/12/05 02:21:05;;;;;;;49.08;27.98;;;;;;;3.76;90.41;101836.59;5068077;28;20024;-45
2022/12/05 02:23:49;;;;;;;51.80;28.30;;;;;;;3.72;90.64;101839.69;5070156;28;20029;-49
2022/12/05 02:26:42;;;;;;;50.45;27.75;;;;;;;3.75;90.79;101839.91;5066426;28;20039;-49
2022/12/05 02:29:11;;;;;;;49.33;27.50;;;;;;;3.78;90.53;101829.06;5067025;28;20072;-47
2022/12/05 02:31:53;;;;;;;51.17;27.27;;;;;;;3.84;90.63;101836.25;5065675;28;20457;-47
2022/12/05 02:34:29;;;;;;;48.28;27.23;;;;;;;3.80;90.77;101835.16;5066909;28;20094;-46
2022/12/05 02:37:13;;;;;;;47.90;27.33;;;;;;;3.85;90.48;101832.94;5069942;28;20036;-49
2022/12/05 02:39:53;;;;;;;46.67;27.85;;;;;;;3.81;90.61;101831.81;5069167;28;20028;-48
2022/12/05 02:42:52;;;;;;;45.72;27.23;;;;;;;3.81;90.54;101828.38;5067107;28;20039;-48
2022/12/05 02:45:22;;;;;;;48.65;27.98;;;;;;;3.78;90.79;101836.72;5067317;28;20040;-50
2022/12/05 02:47:51;;;;;;;48.30;28.15;;;;;;;3.75;90.70;101834.81;5069276;28;20119;-48
2022/12/05 02:50:22;;;;;;;46.78;27.40;;;;;;;3.78;90.81;101836.72;5067206;28;20025;-48
2022/12/05 02:52:51;;;;;;;51.70;27.77;;;;;;;3.73;90.97;101835.50;5068979;28;20032;-50
2022/12/05 02:55:18;;;;;;;49.77;28.10;;;;;;;3.72;91.23;101834.59;5069683;28;20414;-46
2022/12/05 02:57:51;;;;;;;48.63;29.27;;;;;;;3.70;91.48;101835.25;5070662;28;20924;-49
2022/12/05 03:00:17;;;;;;;50.83;28.13;;;;;;;3.69;91.72;101843.66;5068029;28;20123;-48
2022/12/05 03:02:43;;;;;;;49.10;27.33;;;;;;;3.73;91.37;101845.66;5066133;28;20116;-48
2022/12/05 03:05:39;;;;;;;52.55;28.98;;;;;;;3.75;91.79;101846.66;5067880;28;20086;-48
2022/12/05 03:08:09;;;;;;;54.60;29.63;;;;;;;3.72;92.12;101843.91;5069284;28;20393;-49
2022/12/05 03:10:37;;;;;;;51.28;28.35;;;;;;;3.70;92.50;101843.81;5069700;28;20028;-49
2022/12/05 03:13:12;;;;;;;48.60;28.25;;;;;;;3.69;92.92;101849.63;5067213;28;20103;-45
2022/12/05 03:15:44;;;;;;;49.72;28.05;;;;;;;3.70;93.14;101841.25;5068719;28;20560;-46
2022/12/05 03:18:21;;;;;;;49.00;28.77;;;;;;;3.73;93.05;101846.53;5066607;28;20119;-47
2022/12/05 03:20:53;;;;;;;51.35;29.30;;;;;;;3.75;93.08;101844.97;5064268;28;20615;-48
2022/12/05 03:23:33;;;;;;;47.78;28.02;;;;;;;3.79;93.05;101835.91;5064827;28;20111;-49
2022/12/05 03:26:13;;;;;;;49.72;27.55;;;;;;;3.79;93.15;101835.03;5066544;28;20031;-47
2022/12/05 03:29:00;;;;;;;49.03;27.35;;;;;;;3.78;93.59;101834.16;5067544;28;20028;-50
2022/12/05 03:31:38;;;;;;;53.67;27.98;;;;;;;3.82;93.40;101827.59;5064197;28;20036;-50
2022/12/05 03:34:09;;;;;;;48.13;27.08;;;;;;;3.84;93.67;101833.72;5067568;28;20036;-49
2022/12/05 03:36:41;;;;;;;53.67;28.17;;;;;;;3.83;93.50;101831.94;5058672;28;20428;-47
2022/12/05 03:39:18;;;;;;;49.70;28.23;;;;;;;3.83;93.65;101835.38;5061451;28;20039;-47
2022/12/05 03:42:08;;;;;;;50.15;27.25;;;;;;;3.89;93.43;101834.94;5065877;28;20032;-46
2022/12/05 03:44:49;;;;;;;49.60;27.63;;;;;;;3.92;93.79;101837.66;5082275;28;20044;-49
2022/12/05 03:47:37;;;;;;;53.33;28.45;;;;;;;3.88;93.95;101836.56;5065151;28;20032;-49
2022/12/05 03:50:10;;;;;;;47.65;26.77;;;;;;;3.87;93.59;101829.69;5060477;28;20058;-48
2022/12/05 03:52:44;;;;;;;50.97;28.08;;;;;;;3.90;94.08;101841.78;5067608;28;20381;-47
2022/12/05 03:55:12;;;;;;;50.63;28.58;;;;;;;3.91;93.98;101839.34;5058909;28;20044;-45
2022/12/05 03:58:19;;;;;;;47.35;27.98;;;;;;;3.99;93.80;101835.66;5066773;28;20074;-47
2022/12/05 04:00:49;;;;;;;45.45;26.42;;;;;;;3.92;93.72;101836.00;5059598;28;20051;-49
2022/12/05 04:03:50;;;;;;;49.53;28.42;;;;;;;3.99;93.70;101837.31;5060896;28;20134;-47
2022/12/05 04:06:28;;;;;;;49.35;27.63;;;;;;;3.97;93.94;101833.78;5043283;28;20094;-49
2022/12/05 04:08:58;;;;;;;45.28;26.83;;;;;;;4.00;93.93;101839.06;5065957;28;20040;-46
2022/12/05 04:11:28;;;;;;;49.78;27.48;;;;;;;4.01;93.94;101840.88;5067780;28;20081;-49
2022/12/05 04:14:01;;;;;;;47.88;26.70;;;;;;;4.04;93.99;101846.16;5062929;28;20079;-48
2022/12/05 04:22:23;;;;;;;49.70;26.95;;;;;;;4.04;94.04;101844.50;5068419;28;20036;-48
2022/12/05 04:27:46;;;;;;;48.28;27.20;;;;;;;4.07;94.04;101853.16;5068272;28;20048;-48
2022/12/05 04:30:17;;;;;;;48.10;26.75;;;;;;;4.02;94.16;101846.06;5066805;28;20473;-49
2022/12/05 04:32:48;;;;;;;49.53;26.80;;;;;;;4.01;94.33;101854.47;5066760;28;20103;-52
2022/12/05 04:35:24;;;;;;;44.60;26.23;;;;;;;4.02;94.31;101847.72;5066260;28;20113;-48
2022/12/05 04:37:54;;;;;;;47.20;27.15;;;;;;;4.02;94.46;101850.28;5068287;28;20028;-50
2022/12/05 04:40:33;;;;;;;45.40;25.83;;;;;;;4.07;94.30;101848.94;5066310;28;20028;-48
2022/12/05 04:43:01;;;;;;;47.72;26.33;;;;;;;4.01;94.08;101856.16;5068550;28;20360;-49
2022/12/05 04:45:28;;;;;;;49.40;27.93;;;;;;;4.02;94.32;101850.28;5064163;28;20490;-51
2022/12/05 04:47:59;;;;;;;45.38;26.27;;;;;;;4.06;94.61;101857.31;5065211;28;20321;-46
2022/12/05 04:50:29;;;;;;;50.15;26.77;;;;;;;4.06;94.40;101857.31;5061712;28;20021;-49
2022/12/05 04:52:58;;;;;;;44.90;26.50;;;;;;;4.04;94.43;101857.22;5082416;28;20031;-49
2022/12/05 04:55:24;;;;;;;49.67;27.98;;;;;;;4.00;94.40;101861.97;5060668;28;20465;-48
2022/12/05 04:58:30;;;;;;;48.80;26.30;;;;;;;4.06;95.05;101858.97;5061866;28;20048;-49
2022/12/05 05:01:08;;;;;;;45.53;26.20;;;;;;;4.06;95.14;101861.53;5063315;28;20558;-48
2022/12/05 05:03:58;;;;;;;47.42;26.40;;;;;;;4.08;95.04;101853.25;5068696;28;20028;-50
2022/12/05 05:06:25;;;;;;;50.33;26.55;;;;;;;4.09;94.88;101856.66;5055415;28;20051;-48
2022/12/05 05:08:56;;;;;;;49.58;26.13;;;;;;;4.11;94.94;101853.44;5068910;28;20028;-49
2022/12/05 05:11:30;;;;;;;43.92;25.33;;;;;;;4.15;94.84;101846.91;5067659;28;20027;-49
2022/12/05 05:13:56;;;;;;;44.53;25.27;;;;;;;4.12;95.07;101850.13;5069579;28;20020;-47
2022/12/05 05:16:27;;;;;;;46.30;25.27;;;;;;;4.18;94.65;101842.91;5067172;28;20034;-47
2022/12/05 05:18:53;;;;;;;47.20;25.85;;;;;;;4.19;94.72;101851.44;5069329;28;20347;-48
2022/12/05 05:21:36;;;;;;;43.70;25.52;;;;;;;4.17;95.19;101852.97;5067119;28;20505;-50
2022/12/05 05:24:03;;;;;;;43.55;25.35;;;;;;;4.11;95.11;101857.66;5067205;28;20017;-48
2022/12/05 05:26:30;;;;;;;45.38;24.73;;;;;;;4.11;95.20;101868.72;5065374;28;20056;-47
2022/12/05 05:28:57;;;;;;;46.22;25.48;;;;;;;4.11;95.21;101875.47;5068275;28;20024;-47
2022/12/05 05:31:22;;;;;;;43.63;25.58;;;;;;;4.07;95.34;101865.88;5068812;28;20024;-52
2022/12/05 05:33:52;;;;;;;42.08;24.45;;;;;;;4.08;95.59;101871.06;5070731;28;20027;-48
2022/12/05 05:36:18;;;;;;;41.75;24.50;;;;;;;4.05;95.17;101863.19;5067049;28;20028;-47
2022/12/05 05:38:47;;;;;;;44.70;25.13;;;;;;;4.07;95.43;101869.28;5060842;28;20035;-48
2022/12/05 05:41:18;;;;;;;41.72;24.13;;;;;;;4.10;95.54;101868.63;5062635;28;20087;-48
2022/12/05 05:43:44;;;;;;;39.80;23.73;;;;;;;4.09;95.24;101865.19;5065417;28;20074;-47
2022/12/05 05:46:11;;;;;;;42.53;24.58;;;;;;;4.09;95.72;101865.19;5067569;28;20037;-48
2022/12/05 05:48:37;;;;;;;44.35;24.73;;;;;;;4.12;95.47;101869.59;5065688;28;20021;-47
2022/12/05 05:51:04;;;;;;;41.58;24.23;;;;;;;4.11;95.25;101866.16;5069984;28;20020;-49
2022/12/05 05:53:29;;;;;;;37.47;23.48;;;;;;;4.10;95.73;101863.53;5068896;28;20471;-48
2022/12/05 05:55:55;;;;;;;38.25;22.98;;;;;;;4.15;95.58;101868.16;5069983;28;20034;-49
2022/12/05 05:58:20;;;;;;;39.35;23.00;;;;;;;4.14;95.23;101863.84;5068943;28;20107;-50
2022/12/05 06:00:46;;;;;;;42.97;22.60;;;;;;;4.19;95.55;101867.59;5070516;28;20063;-48
2022/12/05 06:03:11;;;;;;;38.15;23.15;;;;;;;4.19;95.26;101874.38;5066740;28;20032;-46
2022/12/05 06:05:36;;;;;;;36.13;22.13;;;;;;;4.20;95.43;101873.59;5066800;28;20058;-48
2022/12/05 06:08:02;;;;;;;41.70;23.05;;;;;;;4.19;95.66;101867.59;5070224;28;20032;-47
2022/12/05 06:10:29;;;;;;;35.10;22.05;;;;;;;4.20;95.57;101868.50;5067316;28;20111;-50
2022/12/05 06:12:54;;;;;;;37.20;22.63;;;;;;;4.21;95.64;101873.69;5081002;28;20032;-48
2022/12/05 06:15:20;;;;;;;38.53;22.23;;;;;;;4.25;95.69;101875.66;5066329;28;20034;-48
2022/12/05 06:17:45;;;;;;;38.97;23.13;;;;;;;4.25;95.77;101883.31;5065096;28;20412;-48
2022/12/05 06:20:11;;;;;;;34.88;21.60;;;;;;;4.22;95.47;101879.66;5063781;28;20071;-47
2022/12/05 06:22:36;;;;;;;36.63;22.42;;;;;;;4.19;95.89;101885.44;5063999;28;20112;-48
2022/12/05 06:25:02;;;;;;;38.67;22.30;;;;;;;4.20;96.13;101887.19;5065523;28;20033;-47
2022/12/05 06:27:31;;;;;;;36.17;22.23;;;;;;;4.23;96.21;101881.41;5069956;28;20352;-52
2022/12/05 06:29:56;;;;;;;37.25;22.60;;;;;;;4.17;96.28;101883.53;5067817;28;20466;-47
2022/12/05 06:32:21;;;;;;;36.25;21.70;;;;;;;4.21;96.17;101888.94;5068393;28;20038;-49
2022/12/05 06:34:47;;;;;;;36.90;21.92;;;;;;;4.26;96.52;101884.19;5068618;28;20040;-50
2022/12/05 06:37:12;;;;;;;35.15;21.15;;;;;;;4.30;96.24;101896.34;5071681;28;20028;-49
2022/12/05 06:39:38;;;;;;;37.42;21.75;;;;;;;4.31;96.32;101893.03;5069499;28;20073;-48
2022/12/05 06:42:04;;;;;;;33.40;21.02;;;;;;;4.30;96.23;101892.13;5070701;28;20393;-48
2022/12/05 06:44:29;;;;;;;37.45;22.25;;;;;;;4.33;96.23;101896.56;5065838;28;20033;-48
2022/12/05 06:46:55;;;;;;;33.92;21.20;;;;;;;4.35;96.21;101891.56;5070129;28;20048;-59
2022/12/05 06:49:24;;;;;;;32.80;21.02;;;;;;;4.39;96.08;101891.00;5066563;28;20111;-49
2022/12/05 06:51:50;;;;;;;;;;;;;;;4.50;95.57;101895.19;5070517;28;20033;-46
2022/12/05 06:54:15;;;;;;;30.75;19.63;;;;;;;4.38;95.71;101892.69;5067395;28;19916;-48
2022/12/05 06:56:40;;;;;;;35.88;20.73;;;;;;;4.37;96.21;101890.00;5070014;28;20036;-47
2022/12/05 06:59:06;;;;;;;31.25;19.35;;;;;;;4.38;95.91;101897.78;5070185;28;20392;-52
2022/12/05 07:01:40;;;;;;;31.88;18.88;;;;;;;4.42;96.35;101889.53;5065381;28;20504;-46
2022/12/05 07:04:23;;;;;;;30.00;19.13;;;;;;;4.46;95.89;101903.38;5067757;28;20024;-50
2022/12/05 07:06:50;;;;;;;32.58;19.10;;;;;;;4.45;96.02;101889.78;5064999;28;20092;-47
2022/12/05 07:09:16;;;;;;;29.35;18.80;;;;;;;4.47;96.07;101897.50;5065696;28;20029;-47
2022/12/05 07:11:42;;;;;;;31.63;19.95;;;;;;;4.49;96.00;101901.03;5064516;28;20975;-48
2022/12/05 07:14:08;;;;;;;29.30;19.13;;;;;;;4.51;95.87;101902.03;5061441;28;20036;-46
2022/12/05 07:16:34;;;;;;;29.45;18.77;;;;;;;4.51;95.77;101908.03;5068091;28;20032;-48
2022/12/05 07:18:59;;;;;;;30.17;19.33;;;;;;;4.55;95.70;101915.09;5071290;28;20385;-45
2022/12/05 07:21:24;;;;;;;29.95;18.90;;;;;;;4.57;95.57;101915.19;5069296;28;20528;-47
2022/12/05 07:23:50;;;;;;;27.65;18.65;;;;;;;4.57;95.82;101912.66;5070880;28;20404;-47
2022/12/05 07:26:19;;;;;;;31.77;19.30;;;;;;;4.57;95.76;101916.09;5069206;28;20039;-48
2022/12/05 07:28:44;;;;;;;28.63;18.73;;;;;;;4.56;95.78;101919.41;5069635;28;20059;-47
2022/12/05 07:31:13;;;;;;;30.35;18.42;;;;;;;4.55;95.77;101915.09;5067425;28;20052;-50
2022/12/05 07:33:39;;;;;;;27.88;17.85;;;;;;;4.57;96.35;101931.38;5068820;28;20042;-46
2022/12/05 07:36:08;;;;;;;29.77;18.63;;;;;;;4.58;95.72;101922.06;5065029;28;20044;-46
2022/12/05 07:38:34;;;;;;;30.23;18.67;;;;;;;4.58;95.86;101928.03;5067894;28;20066;-48
2022/12/05 07:41:07;;;;;;;27.25;18.15;;;;;;;4.64;95.84;101926.69;5066619;28;20056;-48
2022/12/05 07:43:33;;;;;;;29.27;18.92;;;;;;;4.61;95.56;101927.38;5063415;28;20511;-46
2022/12/05 07:46:03;;;;;;;29.20;18.10;;;;;;;4.68;96.05;101927.03;5066801;28;20028;-47
2022/12/05 07:48:28;;;;;;;29.73;18.80;;;;;;;4.69;95.81;101921.13;5056455;28;20035;-49
2022/12/05 07:50:57;;;;;;;30.50;19.13;;;;;;;4.72;95.60;101928.09;5056744;28;20033;-49
2022/12/05 07:53:22;;;;;;;30.75;18.95;;;;;;;4.73;95.34;101935.88;5060170;28;20036;-49
2022/12/05 07:55:48;;;;;;;28.63;18.50;;;;;;;4.70;95.74;101938.19;5060951;28;20044;-46
2022/12/05 07:58:13;;;;;;;30.67;18.90;;;;;;;4.71;95.50;101939.06;5063478;28;20045;-48
2022/12/05 08:00:38;;;;;;;28.00;18.33;;;;;;;4.68;95.71;101943.97;5059374;28;20370;-49
2022/12/05 08:03:04;;;;;;;31.70;19.60;;;;;;;4.68;95.79;101933.78;5062642;28;20045;-47
2022/12/05 08:05:29;;;;;;;29.08;19.00;;;;;;;4.71;95.85;101936.53;5061846;28;20127;-48
2022/12/05 08:07:54;;;;;;;30.42;19.40;;;;;;;4.72;95.70;101945.94;5063160;28;20098;-47
2022/12/05 08:10:20;;;;;;;30.88;18.98;;;;;;;4.74;95.94;101950.38;5065104;28;20044;-46
2022/12/05 08:12:45;;;;;;;30.15;19.20;;;;;;;4.73;95.62;101951.16;5061647;28;20035;-47
2022/12/05 08:15:10;;;;;;;31.27;19.77;;;;;;;4.72;95.96;101949.34;5063339;28;20098;-50
2022/12/05 08:17:36;;;;;;;30.77;19.10;;;;;;;4.77;95.99;101959.88;5061936;28;20039;-47
2022/12/05 08:20:02;;;;;;;30.75;19.58;;;;;;;4.76;95.76;101955.56;5062160;28;20037;-46
2022/12/05 08:22:27;;;;;;;28.67;19.27;;;;;;;4.80;96.36;101955.00;5057547;28;20548;-48
2022/12/05 08:24:52;;;;;;;29.55;19.58;;;;;;;4.79;96.35;101955.75;5059692;28;20092;-48
2022/12/05 08:27:18;;;;;;;30.50;19.63;;;;;;;4.80;96.23;101958.44;5063525;28;20039;-47
2022/12/05 08:29:43;;;;;;;30.40;19.05;;;;;;;4.81;96.18;101967.84;5063381;28;20033;-47
2022/12/05 08:32:08;;;;;;;31.58;19.88;;;;;;;4.81;96.25;101966.97;5064233;28;20044;-49
2022/12/05 08:34:34;;;;;;;31.75;20.33;;;;;;;4.82;96.13;101966.19;5062850;28;20182;-48
2022/12/05 08:36:59;;;;;;;29.23;19.13;;;;;;;4.83;96.09;101973.03;5059690;28;20029;-50
2022/12/05 08:39:25;;;;;;;33.83;20.48;;;;;;;4.83;96.32;101971.38;5064942;28;20452;-47
2022/12/05 08:41:51;;;;;;;34.55;19.33;;;;;;;4.81;96.08;101978.03;5059333;28;20029;-48
2022/12/05 08:44:17;;;;;;;31.88;19.63;;;;;;;4.86;96.10;101970.72;5060972;28;20067;-48
2022/12/05 08:46:45;;;;;;;29.80;18.98;;;;;;;4.83;96.24;101973.91;5060400;28;20028;-46
2022/12/05 08:49:11;;;;;;;32.78;20.50;;;;;;;4.83;96.46;101967.94;5063820;28;20028;-49
2022/12/05 08:51:36;;;;;;;30.73;19.80;;;;;;;4.91;96.61;101978.66;5055010;28;20505;-49
2022/12/05 08:54:03;;;;;;;31.02;20.48;;;;;;;4.90;96.36;101975.22;5058614;28;20044;-47
2022/12/05 08:56:29;;;;;;;29.08;19.48;;;;;;;4.95;96.29;101978.09;5060227;28;20146;-48
2022/12/05 08:58:55;;;;;;;32.20;20.25;;;;;;;4.98;96.47;101973.22;5061773;28;20037;-46
2022/12/05 09:01:21;;;;;;;29.48;19.67;;;;;;;4.98;96.16;101975.78;5059639;28;20116;-47
2022/12/05 09:03:47;;;;;;;31.33;19.65;;;;;;;4.99;96.06;101977.53;5058019;28;20036;-49
2022/12/05 09:06:17;;;;;;;30.77;20.00;;;;;;;4.99;96.42;101980.97;5058522;28;20048;-46
2022/12/05 09:08:42;;;;;;;;;;;;;;;5.14;95.73;101980.22;5064368;28;20024;-49
2022/12/05 09:11:11;;;;;;;32.47;20.33;;;;;;;5.02;95.79;101982.81;5060848;28;19961;-48
2022/12/05 09:13:37;;;;;;;31.70;19.30;;;;;;;5.02;96.09;101987.91;5064307;28;20036;-45
2022/12/05 09:16:29;;;;;;;30.40;19.08;;;;;;;5.06;96.04;101988.25;5062131;28;20103;-46
2022/12/05 09:18:55;;;;;;;30.23;19.17;;;;;;;5.03;95.46;101993.13;5062517;28;20032;-45
2022/12/05 09:21:23;;;;;;;30.95;20.17;;;;;;;5.04;96.05;102001.69;5065197;28;20530;-47
2022/12/05 09:23:50;;;;;;;31.67;20.23;;;;;;;5.03;95.51;101999.88;5058018;28;20055;-46
2022/12/05 09:26:18;;;;;;;29.45;20.10;;;;;;;5.00;95.90;102003.13;5061260;28;20055;-47
2022/12/05 09:28:43;;;;;;;31.10;20.00;;;;;;;5.03;95.75;102004.97;5057281;28;20040;-47
2022/12/05 09:31:17;;;;;;;31.20;19.20;;;;;;;5.08;96.00;102006.19;5063996;28;20513;-48
2022/12/05 09:33:44;;;;;;;30.13;19.65;;;;;;;5.03;96.02;102008.41;5063574;28;20455;-48
2022/12/05 09:36:22;;;;;;;29.50;20.52;;;;;;;5.06;96.70;102012.84;5061078;28;20032;-48
2022/12/05 09:38:48;;;;;;;26.80;18.55;;;;;;;5.05;96.23;102009.41;5063320;28;20040;-47
2022/12/05 09:44:41;;;;;;;28.30;18.90;;;;;;;5.08;96.06;102013.84;5062960;28;20035;-46
2022/12/05 09:47:40;;;;;;;25.60;17.77;;;;;;;5.10;95.96;102015.72;5058526;28;20032;-46
2022/12/05 09:50:22;;;;;;;26.60;18.27;;;;;;;5.13;96.13;102021.81;5060147;28;20130;-45
2022/12/05 09:53:24;;;;;;;27.15;18.48;;;;;;;5.11;96.07;102014.06;5058169;28;20032;-45
2022/12/05 09:56:16;;;;;;;29.95;19.15;;;;;;;5.16;96.23;102014.34;5062911;28;20427;-49
2022/12/05 09:58:50;;;;;;;28.83;18.92;;;;;;;5.12;95.97;102018.38;5057415;28;20064;-46
2022/12/05 10:01:37;;;;;;;28.40;18.60;;;;;;;5.10;95.76;102013.19;5072546;28;20052;-48
2022/12/05 10:04:30;;;;;;;25.63;17.55;;;;;;;5.08;95.95;102013.84;5057092;28;20386;-49
2022/12/05 10:06:58;;;;;;;24.77;16.85;;;;;;;5.04;95.81;102020.41;5065032;28;20028;-47
2022/12/05 10:09:29;;;;;;;26.90;17.73;;;;;;;5.05;96.00;102023.84;5062783;28;20414;-49
2022/12/05 10:11:58;;;;;;;25.35;16.65;;;;;;;5.02;95.34;102018.50;5061620;28;20508;-45
2022/12/05 10:14:29;;;;;;;23.08;15.32;;;;;;;5.06;95.14;102015.41;5066293;28;20035;-43
2022/12/05 10:17:00;;;;;;;23.23;14.95;;;;;;;5.05;95.27;102014.53;5065396;28;20487;-48
2022/12/05 10:19:32;;;;;;;21.50;14.70;;;;;;;5.07;94.98;102020.59;5062423;28;20089;-48
2022/12/05 10:22:03;;;;;;;21.55;14.82;;;;;;;5.07;95.33;102017.16;5064735;28;20055;-50
2022/12/05 10:24:32;;;;;;;20.83;13.05;;;;;;;5.08;94.23;102018.94;5061772;28;20528;-48
2022/12/05 10:27:06;;;;;;;17.33;12.65;;;;;;;5.06;93.95;102016.28;5064498;28;20109;-49
2022/12/05 10:29:31;;;;;;;15.80;11.00;;;;;;;5.02;93.76;102011.75;5060417;28;20028;-48
2022/12/05 10:32:17;;;;;;;18.35;12.60;;;;;;;5.11;94.08;102019.16;5064393;28;20031;-44
2022/12/05 10:34:44;;;;;;;18.13;11.77;;;;;;;5.03;93.82;102018.59;5066765;28;20082;-48
2022/12/05 10:37:20;;;;;;;16.35;11.32;;;;;;;5.06;93.88;102023.06;5060334;28;20044;-44
2022/12/05 10:39:48;;;;;;;15.88;11.68;;;;;;;5.03;93.71;102023.72;5064972;28;20032;-45
2022/12/05 10:42:28;;;;;;;17.90;11.98;;;;;;;5.04;94.26;102022.06;5062598;28;20033;-50
2022/12/05 10:45:07;;;;;;;18.10;12.05;;;;;;;5.05;94.10;102028.94;5066875;28;20489;-47
2022/12/05 10:47:34;;;;;;;16.25;10.70;;;;;;;5.01;93.79;102022.72;5059516;28;22284;-45
2022/12/05 10:50:06;;;;;;;15.85;11.02;;;;;;;5.00;93.66;102026.06;5065210;28;20033;-48
2022/12/05 10:52:32;;;;;;;16.17;11.45;;;;;;;5.00;93.43;102026.06;5066295;28;20020;-46
2022/12/05 10:55:02;;;;;;;16.77;10.88;;;;;;;5.01;93.78;102019.28;5067374;28;20024;-50
2022/12/05 10:57:29;;;;;;;16.30;10.57;;;;;;;5.03;93.19;102015.19;5064963;28;20185;-46
2022/12/05 10:59:55;;;;;;;17.98;10.60;;;;;;;5.03;93.77;102023.72;5063447;28;20039;-47
2022/12/05 11:02:30;;;;;;;13.25;10.00;;;;;;;5.05;93.93;102018.75;5063444;28;20029;-43
2022/12/05 11:04:57;;;;;;;14.85;9.93;;;;;;;5.03;93.01;102015.19;5068087;28;20027;-48
2022/12/05 11:07:56;;;;;;;14.07;9.85;;;;;;;5.09;93.51;102013.03;5067057;28;20182;-47
2022/12/05 11:10:37;;;;;;;15.65;10.80;;;;;;;5.08;93.40;102008.72;5044007;28;20037;-50
2022/12/05 11:13:15;;;;;;;18.02;11.38;;;;;;;5.08;93.39;102014.72;5060032;28;20041;-47
2022/12/05 11:15:45;;;;;;;14.13;10.23;;;;;;;5.01;93.77;102006.56;5062164;28;20032;-48
2022/12/05 11:18:26;;;;;;;15.38;9.95;;;;;;;5.05;93.51;102006.00;5063835;28;20098;-47
2022/12/05 11:20:52;;;;;;;15.63;10.18;;;;;;;5.01;93.28;102001.44;5053831;28;20120;-49
2022/12/05 11:23:28;;;;;;;15.40;10.57;;;;;;;5.05;93.48;102006.00;5060138;28;20135;-47
2022/12/05 11:25:56;;;;;;;16.08;10.13;;;;;;;5.02;93.03;102003.22;5060780;28;20397;-46
2022/12/05 11:28:29;;;;;;;14.55;9.48;;;;;;;5.03;93.26;102000.75;5059936;28;20047;-47
2022/12/05 11:30:56;;;;;;;14.63;9.98;;;;;;;5.10;92.99;102012.28;5059309;28;20100;-48
2022/12/05 11:33:24;;;;;;;13.10;9.43;;;;;;;5.07;92.81;102004.41;5062020;28;20028;-45
2022/12/05 11:35:52;;;;;;;12.00;8.55;;;;;;;5.12;92.53;102008.16;5063456;28;20064;-46
2022/12/05 11:38:23;;;;;;;16.15;9.90;;;;;;;5.08;92.80;102009.63;5063162;28;20036;-48
2022/12/05 11:40:48;;;;;;;13.45;9.43;;;;;;;5.14;92.31;102013.38;5067808;28;20560;-48
2022/12/05 11:43:23;;;;;;;15.55;9.15;;;;;;;5.14;93.13;102008.28;5060418;28;20124;-47
2022/12/05 11:46:14;;;;;;;13.15;9.32;;;;;;;5.14;92.40;102013.38;5067327;28;20028;-46
2022/12/05 11:49:06;;;;;;;15.65;9.50;;;;;;;5.16;92.45;102012.72;5060438;28;20025;-47